createdAt,value
2022-09-27T00:01:02.797Z,1.43
2022-09-27T00:03:31.508Z,0.80
2022-09-27T00:06:05.303Z,1.50
2022-09-27T00:08:34.018Z,1.43
2022-09-27T00:11:02.765Z,1.40
2022-09-27T00:13:31.180Z,1.00
2022-09-27T00:16:01.803Z,1.00
2022-09-27T00:18:31.132Z,1.20
2022-09-27T00:21:06.000Z,1.40
2022-09-27T00:23:34.322Z,1.60
2022-09-27T00:26:02.965Z,1.47
2022-09-27T00:28:31.903Z,1.80
2022-09-27T00:31:01.791Z,1.67
2022-09-27T00:33:30.283Z,2.20
2022-09-27T00:36:04.820Z,2.00
2022-09-27T00:38:33.068Z,2.03
2022-09-27T00:41:01.394Z,2.57
2022-09-27T00:43:44.262Z,2.53
2022-09-27T00:46:15.232Z,2.30
2022-09-27T00:48:43.666Z,2.83
2022-09-27T00:51:11.912Z,2.93
2022-09-27T00:53:42.189Z,3.60
2022-09-27T00:56:11.860Z,2.60
2022-09-27T00:58:43.162Z,3.53
2022-09-27T01:01:12.251Z,2.60
2022-09-27T01:03:44.826Z,1.30
2022-09-27T01:06:13.393Z,2.60
2022-09-27T01:08:41.769Z,3.30
2022-09-27T01:11:16.540Z,2.53
2022-09-27T01:13:47.355Z,3.00
2022-09-27T01:16:20.549Z,3.23
2022-09-27T01:18:54.301Z,2.80
2022-09-27T01:21:37.442Z,2.73
2022-09-27T01:24:26.603Z,2.70
2022-09-27T01:27:13.670Z,2.97
2022-09-27T01:29:47.501Z,2.40
2022-09-27T01:32:20.047Z,3.00
2022-09-27T01:34:50.847Z,2.93
2022-09-27T01:37:23.060Z,3.47
2022-09-27T01:39:52.838Z,2.63
2022-09-27T01:42:22.804Z,3.27
2022-09-27T01:44:53.031Z,3.20
2022-09-27T01:47:24.114Z,3.70
2022-09-27T01:49:54.997Z,2.17
2022-09-27T01:52:25.718Z,2.73
2022-09-27T01:54:55.898Z,2.27
2022-09-27T01:57:26.366Z,1.80
2022-09-27T01:59:58.194Z,2.30
2022-09-27T02:02:28.903Z,1.73
2022-09-27T02:04:58.623Z,1.83
2022-09-27T02:07:29.877Z,1.63
2022-09-27T02:10:01.030Z,1.40
2022-09-27T02:12:31.160Z,0.87
2022-09-27T02:15:00.221Z,1.20
2022-09-27T02:17:32.404Z,1.70
2022-09-27T02:20:05.713Z,1.23
2022-09-27T02:22:36.527Z,1.23
2022-09-27T02:25:09.013Z,0.93
2022-09-27T02:27:40.621Z,1.37
2022-09-27T02:30:11.752Z,1.23
2022-09-27T02:32:42.005Z,0.90
2022-09-27T02:35:14.781Z,1.30
2022-09-27T02:37:43.085Z,1.63
2022-09-27T02:40:11.597Z,1.40
2022-09-27T02:42:40.269Z,1.30
2022-09-27T02:45:09.089Z,2.07
2022-09-27T02:47:45.862Z,1.20
2022-09-27T02:50:20.539Z,1.50
2022-09-27T02:52:52.262Z,1.50
2022-09-27T02:55:21.760Z,1.43
2022-09-27T02:57:55.698Z,1.60
2022-09-27T03:00:26.848Z,1.30
2022-09-27T03:03:01.143Z,2.17
2022-09-27T03:05:30.553Z,2.50
2022-09-27T03:07:58.906Z,2.40
2022-09-27T03:10:28.911Z,2.13
2022-09-27T03:12:58.502Z,2.77
2022-09-27T03:15:26.851Z,2.10
2022-09-27T03:17:55.090Z,2.20
2022-09-27T03:20:24.714Z,2.13
2022-09-27T03:22:52.964Z,2.20
2022-09-27T03:25:21.426Z,2.27
2022-09-27T03:27:49.779Z,2.20
2022-09-27T03:30:18.184Z,2.10
2022-09-27T03:32:46.891Z,2.10
2022-09-27T03:35:15.324Z,1.80
2022-09-27T03:37:44.981Z,2.40
2022-09-27T03:40:13.228Z,3.27
2022-09-27T03:42:43.257Z,3.53
2022-09-27T03:45:14.649Z,3.03
2022-09-27T03:47:42.939Z,2.90
2022-09-27T03:50:12.050Z,2.97
2022-09-27T03:52:40.486Z,3.20
2022-09-27T03:55:10.768Z,2.80
2022-09-27T03:57:39.022Z,2.50
2022-09-27T04:00:07.982Z,2.67
2022-09-27T04:02:36.382Z,2.60
2022-09-27T04:05:05.171Z,2.50
2022-09-27T04:07:33.453Z,3.13
2022-09-27T04:10:02.056Z,2.23
2022-09-27T04:12:33.076Z,2.40
2022-09-27T04:15:01.531Z,2.17
2022-09-27T04:17:29.800Z,2.17
2022-09-27T04:19:58.012Z,2.93
2022-09-27T04:22:26.248Z,3.07
2022-09-27T04:24:54.488Z,1.93
2022-09-27T04:27:23.026Z,2.93
2022-09-27T04:29:52.655Z,2.67
2022-09-27T04:32:20.966Z,2.73
2022-09-27T04:35:06.750Z,1.73
2022-09-27T04:37:35.610Z,2.37
2022-09-27T04:40:04.079Z,2.10
2022-09-27T04:42:34.453Z,2.13
2022-09-27T04:45:04.069Z,3.60
2022-09-27T04:47:34.132Z,2.40
2022-09-27T04:50:02.388Z,2.60
2022-09-27T04:52:32.236Z,2.40
2022-09-27T04:55:00.628Z,2.70
2022-09-27T04:57:28.902Z,2.67
2022-09-27T05:00:00.253Z,2.50
2022-09-27T05:02:30.269Z,3.00
2022-09-27T05:04:59.443Z,2.43
2022-09-27T05:07:27.778Z,2.80
2022-09-27T05:09:56.693Z,3.03
2022-09-27T05:12:26.802Z,2.23
2022-09-27T05:14:55.210Z,3.30
2022-09-27T05:17:23.596Z,3.43
2022-09-27T05:19:53.430Z,2.93
2022-09-27T05:22:21.658Z,2.90
2022-09-27T05:24:49.867Z,2.90
2022-09-27T05:27:20.258Z,2.50
2022-09-27T05:29:48.995Z,2.97
2022-09-27T05:32:17.488Z,2.50
2022-09-27T05:34:45.756Z,2.30
2022-09-27T05:37:15.658Z,2.90
2022-09-27T05:39:43.906Z,3.20
2022-09-27T05:42:14.020Z,3.30
2022-09-27T05:44:42.251Z,3.27
2022-09-27T05:47:10.476Z,2.37
2022-09-27T05:49:39.321Z,2.47
2022-09-27T05:52:08.259Z,2.90
2022-09-27T05:54:39.756Z,2.47
2022-09-27T05:57:08.113Z,2.00
2022-09-27T05:59:36.379Z,2.53
2022-09-27T06:02:04.743Z,3.00
2022-09-27T06:04:33.130Z,2.63
2022-09-27T06:07:01.337Z,2.17
2022-09-27T06:09:29.827Z,2.30
2022-09-27T06:12:01.602Z,2.50
2022-09-27T06:14:30.282Z,2.83
2022-09-27T06:16:58.584Z,2.50
2022-09-27T06:19:26.834Z,2.93
2022-09-27T06:21:55.106Z,3.93
2022-09-27T06:24:23.349Z,2.33
2022-09-27T06:26:51.562Z,3.30
2022-09-27T06:29:21.238Z,3.37
2022-09-27T06:31:49.453Z,3.20
2022-09-27T06:34:18.070Z,3.20
2022-09-27T06:36:48.279Z,3.20
2022-09-27T06:39:19.776Z,3.80
2022-09-27T06:41:48.233Z,4.80
2022-09-27T06:44:16.492Z,3.23
2022-09-27T06:46:46.218Z,3.60
2022-09-27T06:49:14.549Z,3.60
2022-09-27T06:51:45.495Z,4.30
2022-09-27T06:54:13.934Z,3.57
2022-09-27T06:56:42.190Z,4.20
2022-09-27T06:59:27.824Z,3.93
2022-09-27T07:01:57.491Z,4.20
2022-09-27T07:04:25.756Z,3.90
2022-09-27T07:06:54.021Z,3.40
2022-09-27T07:09:22.286Z,4.60
2022-09-27T07:11:50.518Z,3.60
2022-09-27T07:14:18.757Z,4.70
2022-09-27T07:16:47.193Z,3.80
2022-09-27T07:19:18.286Z,3.40
2022-09-27T07:21:46.549Z,3.97
2022-09-27T07:24:14.828Z,4.10
2022-09-27T07:26:43.195Z,4.23
2022-09-27T07:29:11.445Z,4.73
2022-09-27T07:31:39.777Z,4.93
2022-09-27T07:34:08.076Z,4.10
2022-09-27T07:36:37.712Z,5.40
2022-09-27T07:39:08.801Z,4.10
2022-09-27T07:41:39.189Z,4.73
2022-09-27T07:44:08.153Z,4.83
2022-09-27T07:46:36.364Z,5.07
2022-09-27T07:49:04.638Z,4.50
2022-09-27T07:51:32.880Z,4.77
2022-09-27T07:54:07.871Z,5.70
2022-09-27T07:56:37.251Z,5.67
2022-09-27T07:59:05.502Z,5.67
2022-09-27T08:01:34.607Z,6.20
2022-09-27T08:04:03.098Z,5.77
2022-09-27T08:06:31.363Z,5.90
2022-09-27T08:09:00.285Z,5.13
2022-09-27T08:11:29.894Z,5.20
2022-09-27T08:13:58.141Z,6.53
2022-09-27T08:16:26.534Z,6.10
2022-09-27T08:18:55.103Z,5.63
2022-09-27T08:21:23.350Z,6.73
2022-09-27T08:23:51.576Z,7.10
2022-09-27T08:26:20.043Z,6.87
2022-09-27T08:28:50.592Z,6.50
2022-09-27T08:31:19.238Z,5.47
2022-09-27T08:33:50.652Z,7.70
2022-09-27T08:36:20.056Z,6.87
2022-09-27T08:38:50.772Z,5.60
2022-09-27T08:41:29.385Z,5.90
2022-09-27T08:44:07.846Z,4.00
2022-09-27T08:46:42.893Z,4.00
2022-09-27T08:49:14.844Z,3.90
2022-09-27T08:51:43.767Z,4.40
2022-09-27T08:54:19.042Z,3.80
2022-09-27T08:56:49.241Z,3.70
2022-09-27T08:59:21.764Z,3.97
2022-09-27T09:01:50.491Z,4.20
2022-09-27T09:04:27.364Z,3.70
2022-09-27T09:07:00.144Z,5.10
2022-09-27T09:09:33.226Z,4.10
2022-09-27T09:12:23.221Z,3.37
2022-09-27T09:15:00.604Z,4.73
2022-09-27T09:17:35.207Z,4.17
2022-09-27T09:20:17.068Z,5.50
2022-09-27T09:22:52.903Z,4.40
2022-09-27T09:25:25.902Z,3.93
2022-09-27T09:28:02.291Z,3.50
2022-09-27T09:30:35.235Z,5.00
2022-09-27T09:33:16.004Z,4.50
2022-09-27T09:35:47.780Z,5.17
2022-09-27T09:38:19.094Z,3.57
2022-09-27T09:40:50.326Z,5.83
2022-09-27T09:43:20.228Z,5.87
2022-09-27T09:45:52.188Z,4.80
2022-09-27T09:48:23.160Z,6.10
2022-09-27T09:50:53.564Z,7.17
2022-09-27T09:53:23.714Z,6.90
2022-09-27T09:55:54.417Z,6.20
2022-09-27T09:58:24.078Z,6.40
2022-09-27T10:00:55.586Z,7.03
2022-09-27T10:03:24.514Z,5.60
2022-09-27T10:05:52.893Z,5.57
2022-09-27T10:08:22.983Z,6.17
2022-09-27T10:10:57.365Z,6.13
2022-09-27T10:13:25.797Z,5.90
2022-09-27T10:16:02.300Z,5.50
2022-09-27T10:18:31.061Z,5.20
2022-09-27T10:21:01.894Z,6.77
2022-09-27T10:23:30.274Z,6.60
2022-09-27T10:25:59.443Z,5.60
2022-09-27T10:28:29.649Z,6.23
2022-09-27T10:30:59.938Z,6.20
2022-09-27T10:33:30.040Z,5.60
2022-09-27T10:35:58.315Z,5.80
2022-09-27T10:38:28.361Z,5.30
2022-09-27T10:40:58.753Z,4.90
2022-09-27T10:43:29.906Z,4.40
2022-09-27T10:46:04.306Z,4.80
2022-09-27T10:48:32.571Z,4.47
2022-09-27T10:51:01.693Z,4.73
2022-09-27T10:53:30.568Z,4.13
2022-09-27T10:55:59.186Z,4.50
2022-09-27T10:58:29.186Z,3.90
2022-09-27T11:00:58.746Z,4.83
2022-09-27T11:03:29.063Z,4.60
2022-09-27T11:05:59.379Z,3.63
2022-09-27T11:08:32.118Z,4.40
2022-09-27T11:11:08.732Z,4.00
2022-09-27T11:13:37.057Z,3.43
2022-09-27T11:16:21.091Z,3.07
2022-09-27T11:18:53.629Z,3.73
2022-09-27T11:21:27.132Z,3.40
2022-09-27T11:24:01.176Z,3.20
2022-09-27T11:26:34.851Z,2.20
2022-09-27T11:29:07.800Z,1.20
2022-09-27T11:31:43.022Z,1.77
2022-09-27T11:34:25.164Z,1.73
2022-09-27T11:36:59.636Z,1.70
2022-09-27T11:39:30.469Z,1.83
2022-09-27T11:42:07.374Z,1.80
2022-09-27T11:44:44.347Z,1.47
2022-09-27T11:47:18.025Z,1.93
2022-09-27T11:50:00.276Z,1.60
2022-09-27T11:52:36.913Z,2.30
2022-09-27T11:55:16.848Z,1.87
2022-09-27T11:57:48.770Z,1.87
2022-09-27T12:00:21.647Z,1.40
2022-09-27T12:03:06.914Z,1.83
2022-09-27T12:05:39.888Z,1.80
2022-09-27T12:08:14.769Z,1.83
2022-09-27T12:10:43.769Z,1.70
2022-09-27T12:13:14.237Z,2.10
2022-09-27T12:15:44.216Z,1.80
2022-09-27T12:18:16.029Z,1.47
2022-09-27T12:20:45.937Z,1.57
2022-09-27T12:23:18.658Z,1.70
2022-09-27T12:25:47.542Z,1.90
2022-09-27T12:28:22.441Z,1.37
2022-09-27T12:31:17.269Z,1.57
2022-09-27T12:33:47.718Z,1.30
2022-09-27T12:36:19.422Z,1.63
2022-09-27T12:38:52.166Z,1.30
2022-09-27T12:41:21.565Z,1.30
2022-09-27T12:43:51.532Z,1.17
2022-09-27T12:46:25.734Z,1.70
2022-09-27T12:49:00.288Z,1.70
2022-09-27T12:51:34.129Z,1.30
2022-09-27T12:54:12.539Z,1.13
2022-09-27T12:56:47.248Z,1.20
2022-09-27T12:59:21.780Z,1.13
2022-09-27T13:01:57.518Z,1.23
2022-09-27T13:04:32.037Z,1.50
2022-09-27T13:07:07.049Z,1.30
2022-09-27T13:09:47.975Z,0.93
2022-09-27T13:12:19.115Z,1.60
2022-09-27T13:14:59.127Z,1.40
2022-09-27T13:17:35.760Z,1.20
2022-09-27T13:20:18.950Z,1.13
2022-09-27T13:22:48.544Z,1.30
2022-09-27T13:25:32.141Z,1.37
2022-09-27T13:28:00.463Z,1.67
2022-09-27T13:30:49.380Z,1.70
2022-09-27T13:33:33.096Z,1.53
2022-09-27T13:36:08.603Z,1.40
2022-09-27T13:38:38.592Z,1.70
2022-09-27T13:41:17.937Z,1.90
2022-09-27T13:43:59.281Z,1.50
2022-09-27T13:46:28.779Z,1.57
2022-09-27T13:48:59.646Z,2.20
2022-09-27T13:51:38.151Z,1.87
2022-09-27T13:54:10.717Z,1.20
2022-09-27T13:56:52.756Z,1.67
2022-09-27T13:59:25.457Z,2.10
2022-09-27T14:01:54.341Z,2.13
2022-09-27T14:04:24.226Z,2.07
2022-09-27T14:06:54.923Z,1.00
2022-09-27T14:09:27.961Z,1.30
2022-09-27T14:11:58.332Z,1.40
2022-09-27T14:14:28.906Z,1.57
2022-09-27T14:16:58.098Z,1.50
2022-09-27T14:19:26.898Z,1.57
2022-09-27T14:21:55.373Z,1.17
2022-09-27T14:24:29.974Z,1.60
2022-09-27T14:27:10.001Z,1.20
2022-09-27T14:29:42.423Z,1.60
2022-09-27T14:32:13.177Z,1.23
2022-09-27T14:34:41.738Z,1.60
2022-09-27T14:37:24.317Z,1.50
2022-09-27T14:39:58.334Z,1.40
2022-09-27T14:42:28.513Z,1.87
2022-09-27T14:45:01.313Z,1.60
2022-09-27T14:47:29.616Z,1.40
2022-09-27T14:49:58.985Z,1.53
2022-09-27T14:52:30.051Z,1.47
2022-09-27T14:55:05.138Z,1.90
2022-09-27T14:57:35.931Z,1.80
2022-09-27T15:00:16.945Z,1.80
2022-09-27T15:02:45.298Z,2.17
2022-09-27T15:05:16.044Z,2.43
2022-09-27T15:07:44.848Z,2.63
2022-09-27T15:10:18.001Z,2.23
2022-09-27T15:12:48.676Z,1.90
2022-09-27T15:15:17.668Z,2.10
2022-09-27T15:17:46.157Z,2.53
2022-09-27T15:20:21.971Z,2.47
2022-09-27T15:22:50.282Z,2.30
2022-09-27T15:25:25.182Z,2.30
2022-09-27T15:27:54.470Z,2.90
2022-09-27T15:30:29.675Z,2.20
2022-09-27T15:32:58.460Z,2.80
2022-09-27T15:35:28.732Z,2.90
2022-09-27T15:38:12.269Z,2.90
2022-09-27T15:41:04.708Z,3.00
2022-09-27T15:43:35.836Z,3.63
2022-09-27T15:46:05.202Z,3.80
2022-09-27T15:48:35.272Z,4.90
2022-09-27T15:51:03.746Z,4.27
2022-09-27T15:53:45.353Z,3.90
2022-09-27T15:56:15.298Z,4.20
2022-09-27T15:58:45.777Z,5.00
2022-09-27T16:01:19.043Z,4.37
2022-09-27T16:03:47.272Z,4.70
2022-09-27T16:06:15.999Z,4.17
2022-09-27T16:08:45.527Z,3.80
2022-09-27T16:11:15.605Z,4.90
2022-09-27T16:13:45.176Z,4.53
2022-09-27T16:16:17.317Z,4.30
2022-09-27T16:18:46.474Z,3.90
2022-09-27T16:21:14.892Z,4.70
2022-09-27T16:23:43.114Z,3.33
2022-09-27T16:26:12.480Z,3.40
2022-09-27T16:28:40.694Z,3.17
2022-09-27T16:31:12.097Z,3.13
2022-09-27T16:33:40.356Z,2.80
2022-09-27T16:36:14.502Z,3.40
2022-09-27T16:38:43.101Z,2.87
2022-09-27T16:41:11.305Z,3.40
2022-09-27T16:43:39.546Z,3.60
2022-09-27T16:46:09.228Z,4.33
2022-09-27T16:48:40.150Z,4.10
2022-09-27T16:51:26.904Z,4.67
2022-09-27T16:53:55.293Z,4.70
2022-09-27T16:56:23.633Z,5.00
2022-09-27T16:58:51.844Z,5.03
2022-09-27T17:01:21.615Z,4.37
2022-09-27T17:03:57.409Z,4.67
2022-09-27T17:06:26.113Z,3.57
2022-09-27T17:08:54.382Z,3.60
2022-09-27T17:11:22.978Z,4.97
2022-09-27T17:13:55.216Z,4.40
2022-09-27T17:16:23.808Z,3.73
2022-09-27T17:18:51.978Z,3.73
2022-09-27T17:21:21.822Z,3.67
2022-09-27T17:23:50.050Z,3.80
2022-09-27T17:26:19.420Z,3.90
2022-09-27T17:28:47.975Z,4.13
2022-09-27T17:31:17.627Z,4.23
2022-09-27T17:33:46.764Z,5.40
2022-09-27T17:36:17.376Z,4.93
2022-09-27T17:38:47.348Z,4.60
2022-09-27T17:41:16.965Z,4.10
2022-09-27T17:43:49.978Z,4.53
2022-09-27T17:46:19.532Z,4.17
2022-09-27T17:49:05.866Z,4.13
2022-09-27T17:51:34.401Z,4.70
2022-09-27T17:54:07.260Z,4.77
2022-09-27T17:56:37.864Z,4.53
2022-09-27T17:59:06.621Z,4.63
2022-09-27T18:01:37.690Z,5.60
2022-09-27T18:04:08.747Z,5.23
2022-09-27T18:06:40.267Z,4.60
2022-09-27T18:09:10.488Z,4.83
2022-09-27T18:11:39.194Z,4.20
2022-09-27T18:14:08.298Z,3.10
2022-09-27T18:16:39.429Z,4.90
2022-09-27T18:19:08.404Z,4.30
2022-09-27T18:21:37.045Z,4.53
2022-09-27T18:24:06.263Z,4.13
2022-09-27T18:26:38.574Z,4.53
2022-09-27T18:29:07.690Z,3.30
2022-09-27T18:31:36.185Z,4.43
2022-09-27T18:34:04.437Z,3.80
2022-09-27T18:36:32.967Z,3.10
2022-09-27T18:39:02.080Z,3.83
2022-09-27T18:41:30.938Z,4.10
2022-09-27T18:44:01.272Z,3.10
2022-09-27T18:46:38.157Z,2.90
2022-09-27T18:49:07.318Z,5.40
2022-09-27T18:51:37.375Z,2.37
2022-09-27T18:54:07.018Z,2.77
2022-09-27T18:56:39.083Z,2.73
2022-09-27T18:59:09.544Z,2.47
2022-09-27T19:01:39.613Z,2.50
2022-09-27T19:04:09.018Z,2.30
2022-09-27T19:06:37.945Z,2.40
2022-09-27T19:09:06.767Z,2.10
2022-09-27T19:11:35.390Z,2.50
2022-09-27T19:14:03.846Z,2.70
2022-09-27T19:16:33.477Z,2.50
2022-09-27T19:19:01.809Z,2.87
2022-09-27T19:21:31.195Z,2.33
2022-09-27T19:23:59.613Z,2.13
2022-09-27T19:26:28.933Z,2.23
2022-09-27T19:28:58.762Z,2.30
2022-09-27T19:31:29.286Z,3.33
2022-09-27T19:34:00.506Z,3.07
2022-09-27T19:36:28.987Z,2.37
2022-09-27T19:38:58.409Z,3.30
2022-09-27T19:41:27.445Z,1.40
2022-09-27T19:43:55.948Z,2.00
2022-09-27T19:46:25.271Z,1.70
2022-09-27T19:48:53.882Z,2.20
2022-09-27T19:51:24.575Z,2.80
2022-09-27T19:53:53.117Z,2.20
2022-09-27T19:56:21.699Z,1.93
2022-09-27T19:58:50.101Z,2.03
2022-09-27T20:01:20.288Z,1.67
2022-09-27T20:03:49.047Z,2.10
2022-09-27T20:06:18.881Z,2.30
2022-09-27T20:08:48.743Z,2.30
2022-09-27T20:11:17.506Z,2.17
2022-09-27T20:13:45.685Z,2.03
2022-09-27T20:16:15.005Z,1.57
2022-09-27T20:18:44.193Z,2.53
2022-09-27T20:21:12.634Z,1.70
2022-09-27T20:23:40.819Z,2.17
2022-09-27T20:26:11.012Z,2.10
2022-09-27T20:28:42.222Z,2.00
2022-09-27T20:31:10.505Z,2.30
2022-09-27T20:33:49.734Z,3.30
2022-09-27T20:36:18.537Z,2.60
2022-09-27T20:38:47.261Z,2.30
2022-09-27T20:41:18.143Z,1.80
2022-09-27T20:43:46.823Z,1.87
2022-09-27T20:46:16.307Z,1.53
2022-09-27T20:48:45.045Z,2.00
2022-09-27T20:51:14.549Z,1.87
2022-09-27T20:53:42.885Z,1.43
2022-09-27T20:56:19.354Z,0.97
2022-09-27T20:58:47.833Z,1.10
2022-09-27T21:01:16.613Z,1.27
2022-09-27T21:03:44.815Z,1.30
2022-09-27T21:06:13.843Z,1.07
2022-09-27T21:08:42.266Z,1.20
2022-09-27T21:11:11.272Z,0.87
2022-09-27T21:13:41.405Z,1.63
2022-09-27T21:16:10.599Z,1.57
2022-09-27T21:18:38.869Z,0.93
2022-09-27T21:21:08.610Z,0.90
2022-09-27T21:23:40.840Z,1.53
2022-09-27T21:26:12.423Z,1.40
2022-09-27T21:28:42.845Z,1.10
2022-09-27T21:31:11.937Z,1.13
2022-09-27T21:33:40.394Z,1.23
2022-09-27T21:36:09.417Z,1.23
2022-09-27T21:38:37.979Z,1.20
2022-09-27T21:41:07.210Z,1.40
2022-09-27T21:43:36.506Z,1.07
2022-09-27T21:46:07.195Z,1.43
2022-09-27T21:48:35.747Z,1.20
2022-09-27T21:51:05.424Z,1.40
2022-09-27T21:53:33.687Z,1.03
2022-09-27T21:56:02.092Z,1.17
2022-09-27T21:58:30.307Z,1.00
2022-09-27T22:00:58.530Z,0.83
2022-09-27T22:03:28.133Z,0.90
2022-09-27T22:05:56.606Z,0.60
2022-09-27T22:08:24.785Z,0.90
2022-09-27T22:10:52.988Z,0.87
2022-09-27T22:13:21.162Z,0.97
2022-09-27T22:15:50.353Z,0.83
2022-09-27T22:18:18.924Z,1.10
2022-09-27T22:20:48.529Z,0.97
2022-09-27T22:23:16.742Z,0.63
2022-09-27T22:25:45.852Z,1.53
2022-09-27T22:28:14.036Z,1.10
2022-09-27T22:30:42.223Z,1.33
2022-09-27T22:33:10.390Z,1.17
2022-09-27T22:35:38.568Z,1.20
2022-09-27T22:38:08.110Z,1.10
2022-09-27T22:40:36.306Z,1.40
2022-09-27T22:43:04.549Z,1.30
2022-09-27T22:45:32.833Z,1.70
2022-09-27T22:48:01.026Z,1.40
2022-09-27T22:50:29.234Z,1.50
2022-09-27T22:52:57.436Z,1.07
2022-09-27T22:55:26.997Z,1.23
2022-09-27T22:57:55.239Z,1.10
2022-09-27T23:00:23.682Z,1.27
2022-09-27T23:02:55.497Z,1.30
2022-09-27T23:05:23.776Z,1.40
2022-09-27T23:07:52.465Z,1.23
2022-09-27T23:10:21.112Z,1.00
2022-09-27T23:12:54.507Z,1.07
2022-09-27T23:15:22.922Z,1.40
2022-09-27T23:17:51.569Z,1.30
2022-09-27T23:20:20.225Z,1.20
2022-09-27T23:22:48.436Z,1.23
2022-09-27T23:25:16.772Z,1.27
2022-09-27T23:27:46.004Z,1.60
2022-09-27T23:30:15.840Z,1.30
2022-09-27T23:32:45.163Z,1.50
2022-09-27T23:35:13.711Z,1.40
2022-09-27T23:37:41.949Z,1.57
2022-09-27T23:40:12.152Z,1.10
2022-09-27T23:42:40.433Z,2.07
2022-09-27T23:45:10.986Z,1.30
2022-09-27T23:47:40.677Z,1.63
2022-09-27T23:50:09.737Z,1.60
2022-09-27T23:52:38.051Z,1.60
2022-09-27T23:55:06.738Z,1.93
2022-09-27T23:57:34.910Z,1.40
